Time,TemperatureF,DewpointF,PressureIn,WindDirection,WindDirectionDegrees,WindSpeedMPH,WindSpeedGustMPH,Humidity,HourlyPrecipIn,Conditions,Clouds,dailyrainin,SoftwareType,DateUTC
2013-05-18 00:07:00,55.6,39.0,30.08,ENE,73,0.0,-999.0,55,-99.99,,,0.00,weatherlink.com 1.10,2013-05-18 07:07:00,
2013-05-18 00:22:00,55.8,39.0,30.08,NE,56,0.0,-999.0,53,-99.99,,,0.00,weatherlink.com 1.10,2013-05-18 07:22:00,
2013-05-18 00:37:00,55.8,40.0,30.08,NE,56,0.0,-999.0,55,-99.99,,,0.00,weatherlink.com 1.10,2013-05-18 07:37:00,
2013-05-18 00:52:00,55.0,38.0,30.08,NE,56,0.0,-999.0,54,-99.99,,,0.00,weatherlink.com 1.10,2013-05-18 07:52:00,
2013-05-18 01:07:00,54.7,37.0,30.08,NE,55,0.0,-999.0,52,-99.99,,,0.00,weatherlink.com 1.10,2013-05-18 08:07:00,
2013-05-18 01:22:00,54.8,37.0,30.08,NE,55,0.0,-999.0,52,-99.99,,,0.00,weatherlink.com 1.10,2013-05-18 08:22:00,
2013-05-18 01:37:00,54.7,39.0,30.08,NE,55,0.0,-999.0,55,-99.99,,,0.00,weatherlink.com 1.10,2013-05-18 08:37:00,
2013-05-18 01:52:00,54.4,39.0,30.08,NE,55,0.0,-999.0,56,-99.99,,,0.00,weatherlink.com 1.10,2013-05-18 08:52:00,
2013-05-18 02:07:00,54.5,40.0,30.08,NE,55,0.0,-999.0,58,-99.99,,,0.00,weatherlink.com 1.10,2013-05-18 09:07:00,
2013-05-18 02:22:00,54.6,38.0,30.08,NE,55,0.0,-999.0,53,-99.99,,,0.00,weatherlink.com 1.10,2013-05-18 09:22:00,
2013-05-18 02:37:00,54.4,33.0,30.08,NE,55,0.0,-999.0,45,-99.99,,,0.00,weatherlink.com 1.10,2013-05-18 09:37:00,
2013-05-18 02:52:00,54.1,34.0,30.08,NE,55,0.0,-999.0,46,-99.99,,,0.00,weatherlink.com 1.10,2013-05-18 09:52:00,
2013-05-18 03:07:00,53.7,30.0,30.08,NE,55,0.0,-999.0,41,-99.99,,,0.00,weatherlink.com 1.10,2013-05-18 10:07:00,
2013-05-18 03:22:00,54.1,23.0,30.08,North,5,4.0,-999.0,30,-99.99,,,0.00,weatherlink.com 1.10,2013-05-18 10:22:00,
2013-05-18 03:37:00,55.4,23.0,30.08,NNE,32,0.0,-999.0,29,-99.99,,,0.00,weatherlink.com 1.10,2013-05-18 10:37:00,
2013-05-18 03:52:00,55.7,22.0,30.07,North,9,0.0,-999.0,27,-99.99,,,0.00,weatherlink.com 1.10,2013-05-18 10:52:00,
2013-05-18 04:07:00,56.1,21.0,30.07,ESE,105,1.0,-999.0,25,-99.99,,,0.00,weatherlink.com 1.10,2013-05-18 11:07:00,
2013-05-18 04:22:00,56.2,18.0,30.07,North,360,0.0,-999.0,22,-99.99,,,0.00,weatherlink.com 1.10,2013-05-18 11:22:00,
2013-05-18 04:37:00,55.7,21.0,30.08,North,5,0.0,-999.0,26,-99.99,,,0.00,weatherlink.com 1.10,2013-05-18 11:37:00,
2013-05-18 04:52:00,55.4,22.0,30.08,NNE,30,0.0,-999.0,27,-99.99,,,0.00,weatherlink.com 1.10,2013-05-18 11:52:00,
2013-05-18 05:07:00,55.6,21.0,30.08,NNE,29,0.0,-999.0,26,-99.99,,,0.00,weatherlink.com 1.10,2013-05-18 12:07:00,
2013-05-18 05:22:00,55.6,22.0,30.08,NNE,29,0.0,-999.0,27,-99.99,,,0.00,weatherlink.com 1.10,2013-05-18 12:22:00,
2013-05-18 05:37:00,55.4,24.0,30.09,NE,38,0.0,-999.0,30,-99.99,,,0.00,weatherlink.com 1.10,2013-05-18 12:37:00,
2013-05-18 05:52:00,55.2,21.0,30.09,East,82,0.0,-999.0,26,-99.99,,,0.00,weatherlink.com 1.10,2013-05-18 12:52:00,
2013-05-18 06:07:00,55.8,18.0,30.10,NNE,29,0.0,-999.0,23,-99.99,,,0.00,weatherlink.com 1.10,2013-05-18 13:07:00,
2013-05-18 06:22:00,56.0,19.0,30.10,NNE,29,0.0,-999.0,24,-99.99,,,0.00,weatherlink.com 1.10,2013-05-18 13:22:00,
2013-05-18 06:37:00,56.1,23.0,30.10,NNE,29,0.0,-999.0,28,-99.99,,,0.00,weatherlink.com 1.10,2013-05-18 13:37:00,
2013-05-18 06:52:00,55.8,25.0,30.11,NNE,29,0.0,-999.0,31,-99.99,,,0.00,weatherlink.com 1.10,2013-05-18 13:52:00,
2013-05-18 07:07:00,54.8,29.0,30.12,NNE,30,0.0,-999.0,37,-99.99,,,0.00,weatherlink.com 1.10,2013-05-18 14:07:00,
2013-05-18 07:22:00,55.0,30.0,30.12,NNE,30,0.0,-999.0,38,-99.99,,,0.00,weatherlink.com 1.10,2013-05-18 14:22:00,
2013-05-18 07:37:00,56.3,31.0,30.12,NE,44,0.0,-999.0,38,-99.99,,,0.00,weatherlink.com 1.10,2013-05-18 14:37:00,
2013-05-18 07:51:00,57.4,30.0,30.13,NE,44,0.0,-999.0,36,-99.99,,,0.00,weatherlink.com 1.10,2013-05-18 14:51:00,
2013-05-18 08:07:00,58.4,32.0,30.13,East,91,0.0,-999.0,37,-99.99,,,0.00,weatherlink.com 1.10,2013-05-18 15:07:00,
2013-05-18 08:22:00,59.0,34.0,30.14,ENE,67,0.0,-999.0,39,-99.99,,,0.00,weatherlink.com 1.10,2013-05-18 15:22:00,
2013-05-18 08:37:00,60.5,31.0,30.13,North,10,0.0,-999.0,33,-99.99,,,0.00,weatherlink.com 1.10,2013-05-18 15:37:00,
2013-05-18 08:52:00,60.1,36.0,30.14,East,92,0.0,-999.0,41,-99.99,,,0.00,weatherlink.com 1.10,2013-05-18 15:52:00,
2013-05-18 09:07:00,59.8,38.0,30.14,ENE,73,0.0,-999.0,44,-99.99,,,0.00,weatherlink.com 1.10,2013-05-18 16:07:00,
2013-05-18 09:22:00,61.0,36.0,30.13,WSW,244,0.0,-999.0,39,-99.99,,,0.00,weatherlink.com 1.10,2013-05-18 16:22:00,
2013-05-18 09:37:00,62.2,37.0,30.13,WSW,242,0.0,-999.0,39,-99.99,,,0.00,weatherlink.com 1.10,2013-05-18 16:37:00,
2013-05-18 09:52:00,59.6,42.0,30.14,WSW,253,0.0,-999.0,52,-99.99,,,0.00,weatherlink.com 1.10,2013-05-18 16:52:00,
2013-05-18 10:07:00,60.9,43.0,30.14,WSW,249,0.0,-999.0,53,-99.99,,,0.00,weatherlink.com 1.10,2013-05-18 17:07:00,
2013-05-18 10:22:00,61.3,43.0,30.14,ESE,106,0.0,-999.0,52,-99.99,,,0.00,weatherlink.com 1.10,2013-05-18 17:22:00,
2013-05-18 10:37:00,62.0,41.0,30.15,SSW,210,0.0,-999.0,47,-99.99,,,0.00,weatherlink.com 1.10,2013-05-18 17:37:00,
2013-05-18 10:52:00,61.6,44.0,30.15,WSW,238,0.0,-999.0,53,-99.99,,,0.00,weatherlink.com 1.10,2013-05-18 17:52:00,
2013-05-18 11:07:00,63.3,44.0,30.15,WSW,238,0.0,-999.0,50,-99.99,,,0.00,weatherlink.com 1.10,2013-05-18 18:07:00,
2013-05-18 11:22:00,63.7,45.0,30.14,SSW,196,0.0,-999.0,50,-99.99,,,0.00,weatherlink.com 1.10,2013-05-18 18:22:00,
2013-05-18 11:37:00,63.6,44.0,30.14,SE,138,0.0,-999.0,49,-99.99,,,0.00,weatherlink.com 1.10,2013-05-18 18:37:00,
2013-05-18 11:53:00,65.0,46.0,30.15,WSW,250,0.0,-999.0,51,-99.99,,,0.00,weatherlink.com 1.10,2013-05-18 18:53:00,
2013-05-18 12:07:00,65.2,44.0,30.14,SW,230,0.0,-999.0,47,-99.99,,,0.00,weatherlink.com 1.10,2013-05-18 19:07:00,
2013-05-18 12:22:00,65.9,45.0,30.14,West,261,0.0,-999.0,47,-99.99,,,0.00,weatherlink.com 1.10,2013-05-18 19:22:00,
2013-05-18 12:37:00,65.9,44.0,30.14,WSW,256,0.0,-999.0,46,-99.99,,,0.00,weatherlink.com 1.10,2013-05-18 19:37:00,
2013-05-18 12:52:00,66.6,42.0,30.14,SSE,151,0.0,-999.0,41,-99.99,,,0.00,weatherlink.com 1.10,2013-05-18 19:52:00,
2013-05-18 13:07:00,66.8,43.0,30.14,WSW,255,0.0,-999.0,42,-99.99,,,0.00,weatherlink.com 1.10,2013-05-18 20:07:00,
2013-05-18 13:22:00,66.5,44.0,30.14,West,261,0.0,-999.0,45,-99.99,,,0.00,weatherlink.com 1.10,2013-05-18 20:22:00,
2013-05-18 13:38:00,67.3,43.0,30.14,WSW,254,0.0,-999.0,41,-99.99,,,0.00,weatherlink.com 1.10,2013-05-18 20:38:00,
2013-05-18 13:52:00,67.7,42.0,30.14,South,184,0.0,-999.0,40,-99.99,,,0.00,weatherlink.com 1.10,2013-05-18 20:52:00,
2013-05-18 14:07:00,69.3,40.0,30.14,SW,223,0.0,-999.0,35,-99.99,,,0.00,weatherlink.com 1.10,2013-05-18 21:07:00,
2013-05-18 14:22:00,68.3,42.0,30.13,WSW,257,2.0,-999.0,39,-99.99,,,0.00,weatherlink.com 1.10,2013-05-18 21:22:00,
2013-05-18 14:37:00,68.5,45.0,30.13,SW,226,1.0,-999.0,43,-99.99,,,0.00,weatherlink.com 1.10,2013-05-18 21:37:00,
2013-05-18 14:52:00,68.5,47.0,30.13,WSW,248,0.0,-999.0,47,-99.99,,,0.00,weatherlink.com 1.10,2013-05-18 21:52:00,
2013-05-18 15:07:00,68.6,42.0,30.13,WSW,252,0.0,-999.0,38,-99.99,,,0.00,weatherlink.com 1.10,2013-05-18 22:07:00,
2013-05-18 15:22:00,70.0,46.0,30.12,SW,221,0.0,-999.0,42,-99.99,,,0.00,weatherlink.com 1.10,2013-05-18 22:22:00,
2013-05-18 15:36:00,71.7,47.0,30.11,SW,229,0.0,-999.0,41,-99.99,,,0.00,weatherlink.com 1.10,2013-05-18 22:36:00,
2013-05-18 15:51:00,71.0,47.0,30.11,SW,234,1.0,-999.0,43,-99.99,,,0.00,weatherlink.com 1.10,2013-05-18 22:51:00,
2013-05-18 16:06:00,72.2,47.0,30.12,SW,236,0.0,-999.0,41,-99.99,,,0.00,weatherlink.com 1.10,2013-05-18 23:06:00,
2013-05-18 16:21:00,72.3,50.0,30.12,SW,228,0.0,-999.0,45,-99.99,,,0.00,weatherlink.com 1.10,2013-05-18 23:21:00,
2013-05-18 16:36:00,73.0,50.0,30.12,WSW,246,0.0,-999.0,44,-99.99,,,0.00,weatherlink.com 1.10,2013-05-18 23:36:00,
2013-05-18 16:51:00,74.4,48.0,30.11,WSW,246,0.0,-999.0,39,-99.99,,,0.00,weatherlink.com 1.10,2013-05-18 23:51:00,
2013-05-18 17:06:00,72.7,49.0,30.11,WSW,244,0.0,-999.0,43,-99.99,,,0.00,weatherlink.com 1.10,2013-05-19 00:06:00,
2013-05-18 17:21:00,73.9,50.0,30.11,SW,227,0.0,-999.0,43,-99.99,,,0.00,weatherlink.com 1.10,2013-05-19 00:21:00,
2013-05-18 17:36:00,74.2,45.0,30.11,SW,229,1.0,-999.0,36,-99.99,,,0.00,weatherlink.com 1.10,2013-05-19 00:36:00,
2013-05-18 17:51:00,74.2,45.0,30.12,SSE,148,0.0,-999.0,36,-99.99,,,0.00,weatherlink.com 1.10,2013-05-19 00:51:00,
2013-05-18 18:06:00,73.3,42.0,30.11,East,86,1.0,-999.0,32,-99.99,,,0.00,weatherlink.com 1.10,2013-05-19 01:06:00,
2013-05-18 18:21:00,72.3,43.0,30.11,West,260,2.0,-999.0,35,-99.99,,,0.00,weatherlink.com 1.10,2013-05-19 01:21:00,
2013-05-18 18:36:00,71.6,42.0,30.11,SW,225,0.0,-999.0,34,-99.99,,,0.00,weatherlink.com 1.10,2013-05-19 01:36:00,
2013-05-18 18:51:00,71.2,42.0,30.11,East,98,0.0,-999.0,35,-99.99,,,0.00,weatherlink.com 1.10,2013-05-19 01:51:00,
2013-05-18 19:06:00,70.5,43.0,30.11,West,273,0.0,-999.0,37,-99.99,,,0.00,weatherlink.com 1.10,2013-05-19 02:06:00,
2013-05-18 19:21:00,69.4,42.0,30.11,WSW,252,0.0,-999.0,37,-99.99,,,0.00,weatherlink.com 1.10,2013-05-19 02:21:00,
2013-05-18 19:36:00,68.4,42.0,30.11,West,275,5.0,-999.0,38,-99.99,,,0.00,weatherlink.com 1.10,2013-05-19 02:36:00,
2013-05-18 19:51:00,67.8,42.0,30.11,SE,140,0.0,-999.0,39,-99.99,,,0.00,weatherlink.com 1.10,2013-05-19 02:51:00,
2013-05-18 20:06:00,67.0,42.0,30.12,ENE,77,0.0,-999.0,40,-99.99,,,0.00,weatherlink.com 1.10,2013-05-19 03:06:00,
2013-05-18 20:21:00,66.2,42.0,30.11,West,275,3.0,-999.0,41,-99.99,,,0.00,weatherlink.com 1.10,2013-05-19 03:21:00,
2013-05-18 20:36:00,65.7,42.0,30.12,SW,214,2.0,-999.0,42,-99.99,,,0.00,weatherlink.com 1.10,2013-05-19 03:36:00,
2013-05-18 20:52:00,65.7,42.0,30.11,WNW,292,0.0,-999.0,42,-99.99,,,0.00,weatherlink.com 1.10,2013-05-19 03:52:00,
2013-05-18 21:07:00,65.5,42.0,30.12,West,264,0.0,-999.0,42,-99.99,,,0.00,weatherlink.com 1.10,2013-05-19 04:07:00,
2013-05-18 21:22:00,65.2,41.0,30.12,North,9,0.0,-999.0,42,-99.99,,,0.00,weatherlink.com 1.10,2013-05-19 04:22:00,
2013-05-18 21:37:00,64.7,42.0,30.12,ENE,59,0.0,-999.0,43,-99.99,,,0.00,weatherlink.com 1.10,2013-05-19 04:37:00,
2013-05-18 21:52:00,64.9,41.0,30.12,SSE,147,6.0,-999.0,42,-99.99,,,0.00,weatherlink.com 1.10,2013-05-19 04:52:00,
2013-05-18 22:07:00,65.4,42.0,30.12,ESE,123,1.0,-999.0,42,-99.99,,,0.00,weatherlink.com 1.10,2013-05-19 05:07:00,
2013-05-18 22:22:00,64.9,42.0,30.12,NE,52,0.0,-999.0,43,-99.99,,,0.00,weatherlink.com 1.10,2013-05-19 05:22:00,
2013-05-18 22:37:00,64.3,42.0,30.12,NE,36,0.0,-999.0,45,-99.99,,,0.00,weatherlink.com 1.10,2013-05-19 05:37:00,
2013-05-18 22:52:00,63.9,43.0,30.12,ENE,57,0.0,-999.0,46,-99.99,,,0.00,weatherlink.com 1.10,2013-05-19 05:52:00,
2013-05-18 23:07:00,63.1,42.0,30.11,WSW,246,0.0,-999.0,47,-99.99,,,0.00,weatherlink.com 1.10,2013-05-19 06:07:00,
2013-05-18 23:22:00,62.9,42.0,30.11,South,188,0.0,-999.0,47,-99.99,,,0.00,weatherlink.com 1.10,2013-05-19 06:22:00,
2013-05-18 23:37:00,62.6,43.0,30.12,ENE,65,0.0,-999.0,49,-99.99,,,0.00,weatherlink.com 1.10,2013-05-19 06:37:00,
2013-05-18 23:52:00,61.8,42.0,30.12,ENE,57,0.0,-999.0,48,-99.99,,,0.00,weatherlink.com 1.10,2013-05-19 06:52:00,